Airfield :
LOGIN :

Register | Disclaimer

   EN    FR    IT 

 










Legend :    VFR   Marginal VFR   IFR   Intensive IFR   Very Intensive IFR
Visi :
Ceiling :
>= 8 km
>= 3000ft
5 to 8 km
1000 to 3000 ft
1500m to 5 km
500 to 1000 ft
800 to 1500m
200 to 500 ft
< 800m
< 200 ft
Symbols :   Thunderstorms  Fog  Heavy snow  Heavy precipitations  Wind > 20 kt
SIGMETs :     Misc.  Thunderstorms  Icing  Turbulence  Mountain Waves  Volcanic Ashes






- Airport Elevation : 160 ft
- IATA code : LRT


LFRH - Lorient Lann Bihoue

CURRENT METAR :
  • 021400Z AUTO 26007KT 230V290 9999 OVC037 10/06 Q1034 NOSIG

EXPIRED METARs :
  • 021330Z AUTO 26006KT 9999 OVC035 10/06 Q1034 NOSIG
  • 021300Z AUTO 26006KT 9999 OVC034 10/05 Q1035 NOSIG
  • 021230Z AUTO 24005KT 9999 OVC035 10/05 Q1035 NOSIG
  • 021200Z AUTO 25006KT 9999 OVC036 10/05 Q1035 NOSIG
  • 021130Z AUTO 24005KT 9999 FEW011 OVC035 10/05 Q1035 NOSIG

TAF TAF LFRH
Valid from the 02 at 12:00 until the 03 at 12:00 UTC


021100Z 0212/0312 25003KT 9999 OVC030
PROB40 0300/0309 3000 BR
PROB30
TEMPO 0300/0304 0800 FG VV///
PROB30 0304/0308 0700 FG VV///



MET'MAP, your aeronautical weather chart ! - Copyright ORBIFLY December 2007 - Disclaimer

ORBIFLY MET'MAP TEAM :

Programming & Development : Alexandra Zaïnal
Original concept : Baudouin d'Aumeries
Technical & hardware support : Manuel Goepfert
Assistance : Marc-Olivier Méhu




SOURCES & CREDITS :

   NOAA